Time;durP1;ratioP1;P1;durP2;ratioP2;P2;SDS_P1;SDS_P2;PMS_P1;PMS_P2;Temp;Humidity;BMP_temperature;BMP_pressure;BME280_temperature;BME280_humidity;BME280_pressure;Samples;Min_cycle;Max_cycle;Signal;HPM_P1;HPM_P2
2023/06/25 00:01:04;;;;;;;3.83;1.65;;;21.80;93.50;;;;;;5095594;28;20020;-74
2023/06/25 00:03:30;;;;;;;3.55;1.67;;;21.70;93.60;;;;;;5081804;28;20032;-74
2023/06/25 00:05:55;;;;;;;3.85;1.52;;;21.70;93.70;;;;;;5073705;28;20047;-74
2023/06/25 00:08:21;;;;;;;4.88;2.20;;;21.60;93.80;;;;;;5075042;28;20027;-73
2023/06/25 00:10:47;;;;;;;4.65;1.73;;;21.60;93.80;;;;;;5075026;28;20127;-73
2023/06/25 00:13:12;;;;;;;4.55;1.65;;;21.60;94.00;;;;;;5075063;28;20048;-73
2023/06/25 00:15:38;;;;;;;3.50;1.63;;;21.50;94.10;;;;;;5075071;28;20479;-73
2023/06/25 00:18:04;;;;;;;5.38;1.40;;;21.50;94.20;;;;;;5075187;28;20104;-73
2023/06/25 00:20:30;;;;;;;5.43;1.70;;;21.40;94.40;;;;;;5074648;28;20024;-74
2023/06/25 00:22:56;;;;;;;3.50;1.45;;;21.40;94.50;;;;;;5074557;28;20035;-74
2023/06/25 00:25:26;;;;;;;3.85;1.50;;;21.30;94.70;;;;;;5074702;28;20071;-73
2023/06/25 00:27:52;;;;;;;3.88;1.73;;;21.20;94.90;;;;;;5074961;28;20048;-74
2023/06/25 00:30:18;;;;;;;3.83;1.30;;;21.10;95.00;;;;;;5075023;28;20378;-74
2023/06/25 00:32:44;;;;;;;4.82;1.63;;;21.10;95.20;;;;;;5073931;28;20090;-74
2023/06/25 00:35:11;;;;;;;3.60;2.00;;;21.10;95.20;;;;;;5074375;28;20035;-74
2023/06/25 00:37:38;;;;;;;4.88;1.83;;;21.20;95.10;;;;;;5074587;28;20025;-74
2023/06/25 00:40:07;;;;;;;3.67;1.33;;;21.10;95.10;;;;;;5074849;28;20033;-74
2023/06/25 00:42:41;;;;;;;3.40;1.80;;;21.10;95.20;;;;;;5074727;28;20017;-73
2023/06/25 00:45:11;;;;;;;4.95;1.80;;;21.10;95.30;;;;;;5074176;28;20395;-73
2023/06/25 00:47:38;;;;;;;2.60;1.25;;;20.90;95.50;;;;;;5074262;28;20111;-73
2023/06/25 00:50:04;;;;;;;3.60;1.50;;;20.90;95.60;;;;;;5074504;28;20059;-73
2023/06/25 00:52:30;;;;;;;3.53;1.70;;;20.80;95.80;;;;;;5074428;28;20479;-73
2023/06/25 00:54:56;;;;;;;4.47;2.00;;;20.90;95.80;;;;;;5073904;28;20032;-73
2023/06/25 00:57:21;;;;;;;3.40;1.70;;;20.80;95.80;;;;;;5078150;28;20040;-73
2023/06/25 00:59:48;;;;;;;4.10;1.80;;;20.80;96.00;;;;;;5089498;28;20032;-73
2023/06/25 01:02:43;;;;;;;5.53;1.73;;;20.70;96.10;;;;;;5094385;28;20024;-73
2023/06/25 01:05:40;;;;;;;3.33;1.65;;;20.70;96.40;;;;;;5094240;28;20165;-73
2023/06/25 01:08:09;;;;;;;3.63;1.60;;;20.70;96.40;;;;;;5094213;28;20087;-73
2023/06/25 01:10:35;;;;;;;3.63;1.80;;;20.60;96.50;;;;;;5076765;28;20498;-73
2023/06/25 01:13:02;;;;;;;4.05;1.23;;;20.60;96.70;;;;;;5074037;28;20028;-73
2023/06/25 01:15:27;;;;;;;7.25;1.75;;;20.60;96.70;;;;;;5073947;28;20028;-73
2023/06/25 01:17:54;;;;;;;5.82;2.15;;;20.60;96.70;;;;;;5090786;28;20082;-73
2023/06/25 01:20:21;;;;;;;9.35;2.13;;;20.40;96.90;;;;;;5094201;28;20077;-73
2023/06/25 01:22:47;;;;;;;3.72;1.58;;;20.40;97.00;;;;;;5094078;28;20024;-73
2023/06/25 01:25:13;;;;;;;4.25;1.90;;;20.40;97.00;;;;;;5093798;28;20032;-73
2023/06/25 01:27:39;;;;;;;5.13;1.70;;;20.40;97.10;;;;;;5093929;28;20028;-73
2023/06/25 01:30:09;;;;;;;4.65;1.50;;;20.40;97.20;;;;;;5093656;28;20435;-73
2023/06/25 01:32:35;;;;;;;6.40;2.05;;;20.30;97.30;;;;;;5093831;28;20469;-73
2023/06/25 01:35:01;;;;;;;4.60;2.42;;;20.40;97.30;;;;;;5093836;28;20083;-74
2023/06/25 01:37:30;;;;;;;4.43;2.00;;;20.40;97.30;;;;;;5079246;28;20487;-74
2023/06/25 01:39:56;;;;;;;5.57;1.80;;;20.40;97.40;;;;;;5073325;28;20497;-73
2023/06/25 01:42:22;;;;;;;7.13;1.90;;;20.30;97.50;;;;;;5073329;28;20048;-73
2023/06/25 01:44:48;;;;;;;3.25;1.75;;;20.30;97.50;;;;;;5074053;28;20029;-73
2023/06/25 01:47:14;;;;;;;3.47;1.83;;;20.30;97.60;;;;;;5073373;28;20052;-73
2023/06/25 01:49:39;;;;;;;2.97;1.55;;;20.20;97.70;;;;;;5073184;28;20033;-73
2023/06/25 01:52:07;;;;;;;4.28;1.65;;;20.20;97.60;;;;;;5073038;28;20040;-73
2023/06/25 01:54:33;;;;;;;4.10;1.73;;;20.20;97.70;;;;;;5072992;28;20933;-73
2023/06/25 01:57:00;;;;;;;4.32;2.22;;;20.10;97.90;;;;;;5084716;28;20054;-73
2023/06/25 01:59:27;;;;;;;3.28;1.75;;;20.10;98.00;;;;;;5093169;28;20105;-73
2023/06/25 02:01:53;;;;;;;2.92;1.45;;;20.10;98.00;;;;;;5093410;28;20036;-73
2023/06/25 02:04:19;;;;;;;3.42;1.65;;;20.10;98.00;;;;;;5092901;28;20559;-73
2023/06/25 02:06:45;;;;;;;3.45;1.33;;;20.10;98.00;;;;;;5093004;28;20111;-73
2023/06/25 02:09:11;;;;;;;4.15;1.27;;;19.90;98.20;;;;;;5093001;28;20466;-73
2023/06/25 02:11:37;;;;;;;4.82;1.42;;;20.00;98.10;;;;;;5093094;28;20107;-73
2023/06/25 02:14:06;;;;;;;2.70;1.50;;;20.00;98.20;;;;;;5092871;28;20100;-73
2023/06/25 02:16:31;;;;;;;4.28;1.83;;;19.90;98.30;;;;;;5086000;28;20078;-73
2023/06/25 02:18:57;;;;;;;4.22;1.45;;;19.80;98.40;;;;;;5073046;28;20028;-73
2023/06/25 02:21:23;;;;;;;4.95;1.58;;;19.90;98.40;;;;;;5072838;28;20074;-73
2023/06/25 02:23:49;;;;;;;3.67;1.80;;;19.90;98.50;;;;;;5072824;28;20025;-73
2023/06/25 02:26:14;;;;;;;3.05;1.30;;;19.80;98.60;;;;;;5090292;28;20028;-73
2023/06/25 02:28:40;;;;;;;3.28;1.40;;;19.80;98.70;;;;;;5093093;28;20149;-73
2023/06/25 02:31:06;;;;;;;4.95;1.70;;;19.70;98.90;;;;;;5089410;28;20028;-73
2023/06/25 02:33:32;;;;;;;3.45;1.77;;;19.60;99.00;;;;;;5072544;28;20033;-73
2023/06/25 02:35:57;;;;;;;3.13;1.50;;;19.60;99.10;;;;;;5072463;28;20031;-73
2023/06/25 02:38:23;;;;;;;3.90;1.40;;;19.50;99.40;;;;;;5077514;28;20383;-73
2023/06/25 02:40:48;;;;;;;5.45;2.10;;;19.40;99.60;;;;;;5092799;28;20032;-73
2023/06/25 02:43:14;;;;;;;4.53;1.80;;;19.30;99.80;;;;;;5092890;28;20037;-73
2023/06/25 02:45:40;;;;;;;3.20;1.70;;;19.30;99.90;;;;;;5092172;28;20032;-73
2023/06/25 02:48:05;;;;;;;3.10;1.50;;;19.20;99.90;;;;;;5092717;28;20042;-73
2023/06/25 02:50:31;;;;;;;4.38;1.40;;;19.20;99.90;;;;;;5092748;28;20059;-73
2023/06/25 02:52:58;;;;;;;3.10;1.40;;;19.30;99.90;;;;;;5091034;28;20028;-73
2023/06/25 02:55:24;;;;;;;5.32;1.80;;;19.40;99.90;;;;;;5074352;28;20471;-73
2023/06/25 02:57:49;;;;;;;3.15;1.55;;;19.20;99.90;;;;;;5076334;28;20041;-73
2023/06/25 03:00:15;;;;;;;4.60;1.58;;;19.10;99.90;;;;;;5076145;28;20433;-73
2023/06/25 03:02:41;;;;;;;6.07;1.80;;;19.10;99.90;;;;;;5080791;28;20045;-73
2023/06/25 03:05:07;;;;;;;3.78;1.73;;;19.20;99.90;;;;;;5070236;28;20378;-73
2023/06/25 03:07:33;;;;;;;3.72;1.58;;;19.10;99.90;;;;;;5071127;28;20038;-73
2023/06/25 03:09:59;;;;;;;2.80;1.50;;;19.00;99.90;;;;;;5071298;28;20391;-73
2023/06/25 03:12:24;;;;;;;3.30;1.45;;;19.00;99.90;;;;;;5071426;28;20032;-73
2023/06/25 03:14:50;;;;;;;3.55;1.40;;;19.00;99.90;;;;;;5070471;28;20654;-73
2023/06/25 03:17:15;;;;;;;4.00;1.33;;;18.90;99.90;;;;;;5087181;28;20592;-73
2023/06/25 03:19:41;;;;;;;4.20;1.70;;;18.90;99.90;;;;;;5088677;28;20462;-73
2023/06/25 03:22:07;;;;;;;3.80;1.70;;;18.90;99.90;;;;;;5088898;28;20051;-73
2023/06/25 03:24:32;;;;;;;3.30;1.80;;;18.80;99.90;;;;;;5089110;28;20074;-73
2023/06/25 03:26:58;;;;;;;3.65;1.70;;;18.70;99.90;;;;;;5091007;28;20492;-73
2023/06/25 03:29:24;;;;;;;3.45;2.13;;;18.60;99.90;;;;;;5077478;28;20504;-73
2023/06/25 03:31:50;;;;;;;3.40;1.65;;;18.70;99.90;;;;;;5089150;28;20080;-73
2023/06/25 03:34:15;;;;;;;5.85;1.55;;;18.70;99.90;;;;;;5080517;28;20580;-73
2023/06/25 03:36:41;;;;;;;2.78;1.65;;;18.60;99.90;;;;;;5068774;28;20170;-73
2023/06/25 03:39:07;;;;;;;3.55;1.67;;;18.50;99.90;;;;;;5069269;28;20024;-73
2023/06/25 03:41:32;;;;;;;5.38;1.80;;;18.50;99.90;;;;;;5071179;28;20037;-73
2023/06/25 03:43:58;;;;;;;3.70;1.70;;;18.40;99.90;;;;;;5071162;28;20028;-73
2023/06/25 03:46:24;;;;;;;3.25;1.85;;;18.50;99.90;;;;;;5071216;28;20111;-73
2023/06/25 03:48:49;;;;;;;4.30;2.00;;;18.70;99.90;;;;;;5071402;28;20029;-73
2023/06/25 03:51:15;;;;;;;3.97;1.95;;;18.70;99.90;;;;;;5071373;28;20031;-73
2023/06/25 03:53:41;;;;;;;3.20;1.70;;;18.80;99.90;;;;;;5073271;28;20112;-73
2023/06/25 03:56:07;;;;;;;4.93;1.50;;;18.90;99.90;;;;;;5090864;28;20099;-73
2023/06/25 03:58:35;;;;;;;3.80;1.85;;;18.90;99.90;;;;;;5089383;28;20604;-73
2023/06/25 04:01:01;;;;;;;3.65;1.92;;;18.70;99.90;;;;;;5088354;28;20559;-73
2023/06/25 04:03:27;;;;;;;5.65;1.73;;;18.60;99.90;;;;;;5086094;28;20028;-73
2023/06/25 04:05:52;;;;;;;4.07;1.98;;;18.50;99.90;;;;;;5086659;28;20818;-73
2023/06/25 04:08:18;;;;;;;3.95;2.10;;;18.60;99.90;;;;;;5087693;28;20039;-73
2023/06/25 04:10:44;;;;;;;4.10;2.25;;;18.90;99.90;;;;;;5088387;28;20024;-73
2023/06/25 04:13:09;;;;;;;3.83;2.17;;;19.10;99.90;;;;;;5076036;28;20027;-73
2023/06/25 04:15:35;;;;;;;4.85;2.22;;;19.00;99.90;;;;;;5074411;28;20040;-73
2023/06/25 04:18:01;;;;;;;3.50;1.70;;;19.20;99.90;;;;;;5085864;28;20150;-73
2023/06/25 04:20:27;;;;;;;6.93;2.20;;;19.10;99.90;;;;;;5087717;28;20382;-73
2023/06/25 04:22:54;;;;;;;5.22;1.92;;;19.00;99.90;;;;;;5087870;28;20028;-73
2023/06/25 04:25:20;;;;;;;5.30;2.20;;;18.90;99.90;;;;;;5087724;28;20036;-73
2023/06/25 04:27:46;;;;;;;3.95;2.05;;;18.80;99.90;;;;;;5080615;28;20036;-73
2023/06/25 04:30:12;;;;;;;4.22;2.15;;;18.70;99.90;;;;;;5067208;28;20482;-73
2023/06/25 04:32:38;;;;;;;3.95;2.20;;;18.70;99.90;;;;;;5067470;28;20556;-73
2023/06/25 04:35:04;;;;;;;3.75;1.80;;;18.70;99.90;;;;;;5067201;28;20052;-73
2023/06/25 04:37:30;;;;;;;4.05;1.92;;;18.70;99.90;;;;;;5067097;28;20405;-73
2023/06/25 04:39:55;;;;;;;4.97;1.98;;;18.80;99.90;;;;;;5067271;28;20033;-73
2023/06/25 04:42:21;;;;;;;4.25;2.28;;;18.80;99.90;;;;;;5083021;28;20474;-73
2023/06/25 04:44:47;;;;;;;3.90;1.75;;;18.80;99.90;;;;;;5087045;28;20097;-73
2023/06/25 04:47:13;;;;;;;4.43;2.10;;;18.70;99.90;;;;;;5086426;28;20020;-73
2023/06/25 04:49:39;;;;;;;8.25;2.42;;;18.80;99.90;;;;;;5087297;28;20917;-73
2023/06/25 04:52:04;;;;;;;7.20;2.15;;;18.90;99.90;;;;;;5087201;28;20028;-73
2023/06/25 04:54:30;;;;;;;3.88;2.03;;;18.80;99.90;;;;;;5068186;28;20032;-73
2023/06/25 04:56:56;;;;;;;4.00;2.03;;;18.80;99.90;;;;;;5068655;28;20045;-73
2023/06/25 04:59:21;;;;;;;5.18;1.90;;;18.90;99.90;;;;;;5069573;28;20115;-73
2023/06/25 05:01:47;;;;;;;4.90;1.80;;;18.90;99.90;;;;;;5069496;28;20047;-73
2023/06/25 05:04:13;;;;;;;5.47;2.28;;;18.90;99.90;;;;;;5069407;28;20039;-73
2023/06/25 05:06:38;;;;;;;4.68;2.40;;;18.80;99.90;;;;;;5069607;28;20100;-73
2023/06/25 05:09:04;;;;;;;4.07;1.85;;;18.90;99.90;;;;;;5081726;28;20123;-73
2023/06/25 05:11:30;;;;;;;5.15;2.38;;;18.80;99.90;;;;;;5069301;28;20067;-73
2023/06/25 05:13:56;;;;;;;6.03;2.78;;;19.00;99.90;;;;;;5069646;28;20056;-73
2023/06/25 05:16:21;;;;;;;5.60;2.22;;;19.00;99.90;;;;;;5069288;28;20021;-73
2023/06/25 05:18:47;;;;;;;5.78;2.28;;;18.90;99.90;;;;;;5074088;28;20028;-73
2023/06/25 05:21:13;;;;;;;4.20;1.90;;;18.90;99.90;;;;;;5089760;28;20028;-73
2023/06/25 05:23:43;;;;;;;4.50;2.22;;;19.10;99.90;;;;;;5073416;28;20523;-73
2023/06/25 05:26:09;;;;;;;3.65;1.80;;;19.20;99.90;;;;;;5068135;28;20043;-73
2023/06/25 05:28:35;;;;;;;4.25;1.90;;;19.10;99.90;;;;;;5069399;28;20029;-73
2023/06/25 05:31:01;;;;;;;5.20;2.22;;;19.10;99.90;;;;;;5069044;28;20077;-73
2023/06/25 05:33:26;;;;;;;4.07;2.10;;;19.00;99.90;;;;;;5066122;28;20059;-73
2023/06/25 05:35:52;;;;;;;4.10;2.10;;;19.20;99.90;;;;;;5065598;28;20028;-73
2023/06/25 05:38:17;;;;;;;4.25;2.05;;;19.30;99.90;;;;;;5066162;28;20028;-73
2023/06/25 05:40:43;;;;;;;7.07;2.03;;;19.40;99.90;;;;;;5066201;28;20028;-73
2023/06/25 05:43:09;;;;;;;3.72;2.28;;;19.40;99.90;;;;;;5065991;28;20557;-73
2023/06/25 05:45:35;;;;;;;4.22;2.08;;;19.50;99.90;;;;;;5065429;28;20043;-73
2023/06/25 05:48:00;;;;;;;3.88;2.38;;;19.50;99.90;;;;;;5065284;28;20153;-73
2023/06/25 05:50:26;;;;;;;5.28;2.63;;;19.70;99.90;;;;;;5065963;28;20038;-73
2023/06/25 05:52:52;;;;;;;6.43;2.35;;;19.80;99.70;;;;;;5068077;28;20037;-73
2023/06/25 05:55:17;;;;;;;3.75;2.20;;;20.00;99.90;;;;;;5068603;28;20078;-74
2023/06/25 05:57:43;;;;;;;5.97;2.50;;;20.10;99.90;;;;;;5068709;28;20044;-73
2023/06/25 06:00:09;;;;;;;3.75;1.60;;;20.10;99.90;;;;;;5068469;28;20027;-73
2023/06/25 06:02:35;;;;;;;3.80;2.03;;;20.10;99.90;;;;;;5071551;28;20039;-73
2023/06/25 06:05:01;;;;;;;5.22;2.10;;;20.10;99.90;;;;;;5081338;28;20128;-73
2023/06/25 06:07:26;;;;;;;5.25;2.33;;;20.10;99.90;;;;;;5071478;28;20118;-73
2023/06/25 06:09:52;;;;;;;3.85;2.28;;;20.20;99.90;;;;;;5088726;28;20030;-73
2023/06/25 06:12:17;;;;;;;5.25;2.55;;;20.20;99.80;;;;;;5088560;28;20367;-74
2023/06/25 06:14:43;;;;;;;5.32;2.50;;;20.40;99.00;;;;;;5088095;28;20561;-73
2023/06/25 06:17:09;;;;;;;4.90;2.50;;;20.50;97.60;;;;;;5088135;28;20028;-73
2023/06/25 06:19:35;;;;;;;4.30;2.30;;;20.60;96.70;;;;;;5087820;28;20074;-73
2023/06/25 06:22:01;;;;;;;4.65;2.85;;;20.70;96.40;;;;;;5088194;28;20032;-73
2023/06/25 06:24:27;;;;;;;6.53;2.25;;;20.70;95.60;;;;;;5087577;28;20044;-73
2023/06/25 06:26:53;;;;;;;4.80;2.33;;;20.70;96.10;;;;;;5088192;28;20027;-73
2023/06/25 06:29:19;;;;;;;6.32;2.63;;;20.80;96.60;;;;;;5087540;28;20579;-73
2023/06/25 06:31:45;;;;;;;4.85;2.47;;;20.90;96.00;;;;;;5087948;28;20050;-73
2023/06/25 06:34:10;;;;;;;5.18;2.40;;;20.80;95.40;;;;;;5088350;28;20465;-73
2023/06/25 06:36:36;;;;;;;4.20;2.05;;;20.90;95.10;;;;;;5088446;28;20095;-73
2023/06/25 06:39:02;;;;;;;7.05;2.78;;;20.90;95.40;;;;;;5088071;28;20028;-73
2023/06/25 06:41:28;;;;;;;6.50;2.45;;;21.00;95.20;;;;;;5088252;28;20028;-73
2023/06/25 06:43:53;;;;;;;8.77;2.20;;;21.00;94.80;;;;;;5074005;28;20033;-73
2023/06/25 06:46:19;;;;;;;3.72;1.80;;;21.00;95.10;;;;;;5072472;28;20098;-73
2023/06/25 06:48:45;;;;;;;3.95;2.00;;;21.10;94.80;;;;;;5082955;28;20032;-75
2023/06/25 06:51:10;;;;;;;6.50;2.85;;;21.10;95.10;;;;;;5067704;28;20158;-73
2023/06/25 06:53:36;;;;;;;5.80;3.00;;;21.20;95.20;;;;;;5067946;28;20161;-73
2023/06/25 06:56:02;;;;;;;7.07;2.53;;;21.30;95.50;;;;;;5067388;28;20036;-73
2023/06/25 06:58:27;;;;;;;4.50;2.50;;;21.40;94.90;;;;;;5080773;28;20048;-73
2023/06/25 07:00:53;;;;;;;39.85;5.07;;;21.50;94.90;;;;;;5088132;28;20047;-73
2023/06/25 07:03:19;;;;;;;11.50;2.53;;;21.70;94.70;;;;;;5078521;28;20032;-73
2023/06/25 07:05:44;;;;;;;4.05;2.25;;;21.90;94.70;;;;;;5068132;28;20072;-73
2023/06/25 07:08:10;;;;;;;19.65;2.95;;;22.00;94.50;;;;;;5068020;28;20032;-73
2023/06/25 07:10:36;;;;;;;3.40;2.00;;;22.30;93.70;;;;;;5067954;28;20096;-73
2023/06/25 07:13:02;;;;;;;13.20;2.97;;;22.50;93.40;;;;;;5067992;28;20024;-73
2023/06/25 07:15:27;;;;;;;4.50;2.20;;;22.70;93.50;;;;;;5067877;28;20023;-73
2023/06/25 07:17:53;;;;;;;4.15;2.15;;;23.00;93.20;;;;;;5068035;28;20029;-73
2023/06/25 07:20:19;;;;;;;8.30;2.78;;;23.20;92.50;;;;;;5068056;28;20056;-74
2023/06/25 07:22:44;;;;;;;4.80;2.47;;;23.30;92.50;;;;;;5072463;28;20016;-74
2023/06/25 07:25:11;;;;;;;4.28;2.25;;;23.50;92.40;;;;;;5088058;28;20036;-73
2023/06/25 07:27:37;;;;;;;5.57;2.20;;;23.80;92.00;;;;;;5087923;28;20624;-73
2023/06/25 07:30:03;;;;;;;4.82;2.17;;;24.00;92.00;;;;;;5087559;28;20059;-73
2023/06/25 07:32:29;;;;;;;3.88;2.33;;;24.50;91.90;;;;;;5086801;28;20043;-73
2023/06/25 07:34:56;;;;;;;4.63;2.30;;;25.30;91.10;;;;;;5086731;28;20024;-73
2023/06/25 07:37:22;;;;;;;3.97;1.98;;;26.00;90.80;;;;;;5087366;28;20024;-73
2023/06/25 07:39:48;;;;;;;5.95;2.47;;;26.60;89.20;;;;;;5087587;28;20089;-73
2023/06/25 07:42:14;;;;;;;9.55;2.58;;;27.40;88.30;;;;;;5088847;28;20032;-73
2023/06/25 07:44:39;;;;;;;5.88;2.22;;;27.70;86.20;;;;;;5071085;28;20067;-74
2023/06/25 07:47:05;;;;;;;4.55;2.25;;;27.80;86.80;;;;;;5071142;28;20581;-74
2023/06/25 07:49:31;;;;;;;4.25;2.33;;;27.80;86.80;;;;;;5071059;28;20028;-73
2023/06/25 07:51:56;;;;;;;3.67;2.08;;;27.50;86.90;;;;;;5071245;28;20028;-73
2023/06/25 07:54:22;;;;;;;4.60;2.60;;;27.10;87.40;;;;;;5071299;28;20417;-74
2023/06/25 07:56:48;;;;;;;5.13;2.35;;;26.90;89.10;;;;;;5070753;28;20044;-74
2023/06/25 07:59:15;;;;;;;3.90;2.13;;;26.80;88.60;;;;;;5071204;28;20024;-74
2023/06/25 08:01:41;;;;;;;5.10;2.80;;;26.60;88.20;;;;;;5071323;28;20028;-73
2023/06/25 08:04:07;;;;;;;4.75;2.40;;;26.20;88.10;;;;;;5085186;28;20032;-73
2023/06/25 08:06:33;;;;;;;3.20;2.05;;;26.50;89.90;;;;;;5090909;28;20074;-73
2023/06/25 08:08:59;;;;;;;6.05;1.98;;;26.30;90.30;;;;;;5091115;28;20035;-74
2023/06/25 08:11:25;;;;;;;7.40;2.40;;;26.50;90.30;;;;;;5090371;28;20402;-74
2023/06/25 08:13:50;;;;;;;4.40;1.95;;;26.70;89.90;;;;;;5090844;28;20032;-74
2023/06/25 08:16:16;;;;;;;3.33;1.88;;;26.80;89.90;;;;;;5090939;28;20028;-74
2023/06/25 08:18:42;;;;;;;4.00;1.98;;;27.10;89.70;;;;;;5091006;28;20045;-74
2023/06/25 08:21:09;;;;;;;3.25;1.90;;;26.90;88.70;;;;;;5091013;28;20035;-74
2023/06/25 08:23:34;;;;;;;3.65;1.60;;;26.40;90.10;;;;;;5078094;28;20059;-74
2023/06/25 08:26:00;;;;;;;3.67;2.00;;;26.10;90.10;;;;;;5070200;28;20518;-74
2023/06/25 08:28:26;;;;;;;3.33;1.75;;;26.10;90.40;;;;;;5070453;28;20036;-74
2023/06/25 08:30:51;;;;;;;3.00;1.73;;;26.60;90.20;;;;;;5070600;28;20523;-74
2023/06/25 08:33:17;;;;;;;4.72;1.90;;;26.80;89.80;;;;;;5070405;28;20040;-74
2023/06/25 08:35:43;;;;;;;4.30;1.90;;;26.40;90.50;;;;;;5070367;28;20491;-74
2023/06/25 08:38:09;;;;;;;4.05;2.42;;;26.60;90.80;;;;;;5081455;28;20347;-74
2023/06/25 08:40:35;;;;;;;12.93;2.15;;;26.90;89.80;;;;;;5090491;28;20024;-74
2023/06/25 08:43:02;;;;;;;3.72;1.95;;;26.40;90.50;;;;;;5090306;28;20028;-74
2023/06/25 08:45:28;;;;;;;3.35;1.75;;;26.50;90.90;;;;;;5090189;28;20895;-74
2023/06/25 08:47:56;;;;;;;4.50;1.60;;;26.90;90.40;;;;;;5090129;28;20036;-74
2023/06/25 08:50:22;;;;;;;3.67;1.63;;;26.70;90.10;;;;;;5089866;28;20044;-74
2023/06/25 08:52:49;;;;;;;4.80;2.15;;;26.80;91.10;;;;;;5080555;28;20132;-74
2023/06/25 08:55:16;;;;;;;3.63;1.67;;;26.70;91.20;;;;;;5069554;28;20029;-74
2023/06/25 08:57:41;;;;;;;6.25;1.63;;;26.90;91.00;;;;;;5069705;28;20052;-74
2023/06/25 09:00:08;;;;;;;15.27;2.58;;;26.60;91.00;;;;;;5069670;28;20082;-74
2023/06/25 09:02:34;;;;;;;3.72;1.73;;;26.50;90.70;;;;;;5069741;28;20534;-74
2023/06/25 09:05:12;;;;;;;27.52;3.38;;;26.60;90.90;;;;;;5069529;28;20399;-74
2023/06/25 09:07:45;;;;;;;40.25;3.70;;;26.80;90.50;;;;;;5069672;28;20024;-74
2023/06/25 09:10:11;;;;;;;7.97;1.90;;;26.80;90.30;;;;;;5069279;28;20024;-74
2023/06/25 09:12:37;;;;;;;9.10;1.60;;;27.20;90.30;;;;;;5077105;28;20572;-74
2023/06/25 09:15:05;;;;;;;2.95;1.65;;;27.30;91.20;;;;;;5089935;28;20103;-74
2023/06/25 09:17:31;;;;;;;4.32;1.80;;;27.40;90.70;;;;;;5089263;28;20158;-74
2023/06/25 09:20:03;;;;;;;20.88;2.65;;;27.50;90.90;;;;;;5089468;28;20502;-74
2023/06/25 09:22:29;;;;;;;2.85;1.55;;;27.30;90.60;;;;;;5089012;28;20024;-74
2023/06/25 09:24:54;;;;;;;9.48;1.80;;;27.60;90.80;;;;;;5088871;28;20355;-74
2023/06/25 09:27:20;;;;;;;7.10;1.83;;;27.80;90.60;;;;;;5081049;28;20048;-74
2023/06/25 09:29:46;;;;;;;4.22;1.45;;;27.80;90.50;;;;;;5068994;28;20032;-74
2023/06/25 09:32:12;;;;;;;2.17;1.17;;;27.90;90.80;;;;;;5074081;28;20038;-74
2023/06/25 09:34:41;;;;;;;3.92;1.75;;;28.10;90.10;;;;;;5089002;28;20020;-74
2023/06/25 09:37:07;;;;;;;6.85;1.50;;;28.60;90.70;;;;;;5089260;28;20020;-74
2023/06/25 09:39:32;;;;;;;3.50;1.63;;;28.80;89.50;;;;;;5089096;28;20073;-74
2023/06/25 09:42:00;;;;;;;5.30;1.67;;;29.00;89.50;;;;;;5089360;28;20521;-74
2023/06/25 09:44:27;;;;;;;4.18;1.60;;;28.60;89.70;;;;;;5088770;28;20448;-74
2023/06/25 09:47:03;;;;;;;3.75;1.77;;;28.60;90.30;;;;;;5089215;28;20793;-74
2023/06/25 09:49:31;;;;;;;4.05;1.63;;;28.80;89.60;;;;;;5089133;28;20028;-74
2023/06/25 09:52:14;;;;;;;3.70;1.33;;;29.20;89.80;;;;;;5085404;28;20024;-74
2023/06/25 09:54:42;;;;;;;4.75;1.58;;;29.50;87.80;;;;;;5077326;28;20119;-74
2023/06/25 09:57:16;;;;;;;7.35;2.00;;;29.40;87.70;;;;;;5088765;28;20536;-74
2023/06/25 09:59:42;;;;;;;5.07;1.60;;;29.00;88.90;;;;;;5088827;28;20033;-74
2023/06/25 10:02:08;;;;;;;2.85;1.65;;;28.80;88.10;;;;;;5088747;28;20046;-74
2023/06/25 10:04:35;;;;;;;12.52;3.00;;;28.80;88.90;;;;;;5087805;28;20058;-74
2023/06/25 10:07:02;;;;;;;6.18;1.80;;;28.70;89.30;;;;;;5088463;28;20529;-74
2023/06/25 10:09:28;;;;;;;4.20;1.95;;;28.70;88.20;;;;;;5088919;28;20040;-74
2023/06/25 10:11:56;;;;;;;4.53;1.80;;;29.20;88.40;;;;;;5084098;28;20065;-74
2023/06/25 10:14:23;;;;;;;10.15;1.88;;;29.20;87.40;;;;;;5068320;28;20030;-74
2023/06/25 10:16:56;;;;;;;16.48;2.78;;;29.50;86.80;;;;;;5069714;28;20024;-74
2023/06/25 10:19:23;;;;;;;5.03;2.03;;;29.30;86.70;;;;;;5088452;28;20036;-74
2023/06/25 10:22:05;;;;;;;4.30;2.10;;;29.40;86.70;;;;;;5088208;28;20028;-74
2023/06/25 10:24:43;;;;;;;3.40;1.63;;;29.30;86.90;;;;;;5088606;28;20040;-74
2023/06/25 10:27:21;;;;;;;5.03;2.13;;;29.80;87.50;;;;;;5080828;28;20025;-74
2023/06/25 10:29:47;;;;;;;3.42;1.67;;;29.90;86.50;;;;;;5065224;28;20039;-74
2023/06/25 10:32:13;;;;;;;6.78;2.03;;;29.70;85.60;;;;;;5078153;28;20032;-74
2023/06/25 10:34:39;;;;;;;3.40;1.90;;;29.80;85.30;;;;;;5088811;28;20111;-74
2023/06/25 10:37:06;;;;;;;3.50;1.92;;;29.50;85.90;;;;;;5088472;28;20355;-74
2023/06/25 10:39:39;;;;;;;3.85;1.80;;;29.80;85.80;;;;;;5088612;28;20028;-74
2023/06/25 10:42:05;;;;;;;4.93;1.95;;;30.00;86.20;;;;;;5088616;28;20102;-74
2023/06/25 10:44:32;;;;;;;3.83;1.50;;;29.80;85.10;;;;;;5088485;28;20051;-74
2023/06/25 10:47:08;;;;;;;4.20;2.15;;;30.30;85.20;;;;;;5078854;28;20620;-74
2023/06/25 10:49:35;;;;;;;4.10;2.13;;;30.50;83.00;;;;;;5067983;28;20086;-74
2023/06/25 10:52:05;;;;;;;3.80;1.92;;;30.10;84.50;;;;;;5068317;28;20029;-74
2023/06/25 10:54:32;;;;;;;5.38;2.40;;;29.90;86.50;;;;;;5068398;28;20017;-74
2023/06/25 10:57:07;;;;;;;8.02;2.80;;;30.30;85.10;;;;;;5068287;28;20102;-74
2023/06/25 10:59:33;;;;;;;6.10;2.25;;;30.70;85.40;;;;;;5069456;28;20036;-74
2023/06/25 11:02:28;;;;;;;3.05;1.60;;;30.60;83.40;;;;;;5068254;28;20466;-74
2023/06/25 11:04:55;;;;;;;3.75;1.73;;;30.20;84.60;;;;;;5054722;28;20056;-74
2023/06/25 11:07:22;;;;;;;5.15;2.05;;;30.50;86.20;;;;;;5081212;28;20024;-74
2023/06/25 11:09:54;;;;;;;9.07;2.20;;;30.40;83.60;;;;;;5088356;28;20024;-74
2023/06/25 11:12:20;;;;;;;4.32;2.25;;;30.20;83.00;;;;;;5088466;28;20035;-74
2023/06/25 11:14:46;;;;;;;9.75;5.03;;;30.10;84.90;;;;;;5088296;28;20407;-73
2023/06/25 11:17:15;;;;;;;9.88;3.40;;;30.70;85.00;;;;;;5091457;28;20509;-74
2023/06/25 11:19:41;;;;;;;3.35;1.80;;;31.00;83.80;;;;;;5092220;28;20385;-74
2023/06/25 11:22:07;;;;;;;7.28;2.60;;;30.80;83.80;;;;;;5092455;28;20123;-74
2023/06/25 11:24:37;;;;;;;3.90;2.08;;;30.80;83.80;;;;;;5092262;28;20063;-74
2023/06/25 11:27:03;;;;;;;5.93;2.53;;;31.00;82.70;;;;;;5082680;28;20044;-74
2023/06/25 11:29:36;;;;;;;3.70;2.10;;;31.10;84.70;;;;;;5091403;28;20135;-74
2023/06/25 11:32:05;;;;;;;5.72;2.85;;;31.40;83.70;;;;;;5091823;28;20031;-74
2023/06/25 11:34:32;;;;;;;4.78;2.50;;;30.90;83.40;;;;;;5091843;28;20020;-74
2023/06/25 11:37:09;;;;;;;6.97;2.70;;;30.80;82.20;;;;;;5091725;28;20035;-74
2023/06/25 11:39:51;;;;;;;3.80;1.92;;;31.00;82.30;;;;;;5091641;28;20023;-74
2023/06/25 11:42:19;;;;;;;6.10;2.45;;;31.00;81.30;;;;;;5091502;28;20042;-74
2023/06/25 11:44:45;;;;;;;3.97;2.17;;;31.00;82.40;;;;;;5091326;28;20484;-74
2023/06/25 11:47:14;;;;;;;6.70;2.45;;;31.20;81.80;;;;;;5080953;28;20052;-74
2023/06/25 11:49:40;;;;;;;4.88;1.95;;;31.30;81.80;;;;;;5071278;28;20079;-74
2023/06/25 11:52:06;;;;;;;4.22;2.38;;;31.10;82.00;;;;;;5071184;28;20088;-74
2023/06/25 11:54:32;;;;;;;4.65;2.13;;;31.20;81.00;;;;;;5071218;28;20039;-74
2023/06/25 11:56:58;;;;;;;3.88;2.00;;;31.10;81.10;;;;;;5075532;28;20065;-74
2023/06/25 11:59:23;;;;;;;10.57;2.13;;;31.20;82.30;;;;;;5091455;28;20126;-74
2023/06/25 12:01:49;;;;;;;3.70;1.92;;;31.50;80.80;;;;;;5091646;28;20032;-74
2023/06/25 12:04:15;;;;;;;4.32;2.40;;;31.50;81.80;;;;;;5091087;28;20024;-74
2023/06/25 12:06:41;;;;;;;3.85;2.03;;;31.30;80.00;;;;;;5087745;28;20420;-74
2023/06/25 12:09:06;;;;;;;3.60;2.15;;;31.00;81.70;;;;;;5070878;28;20086;-74
2023/06/25 12:11:33;;;;;;;4.38;2.15;;;31.50;81.70;;;;;;5071110;28;20056;-74
2023/06/25 12:13:58;;;;;;;6.30;2.20;;;31.50;80.70;;;;;;5071154;28;20035;-74
2023/06/25 12:16:24;;;;;;;5.28;1.95;;;31.30;80.20;;;;;;5071054;28;20024;-74
2023/06/25 12:18:52;;;;;;;4.38;2.25;;;31.30;80.00;;;;;;5070967;28;20470;-74
2023/06/25 12:21:18;;;;;;;4.00;1.98;;;31.40;80.20;;;;;;5070940;28;20474;-74
2023/06/25 12:23:43;;;;;;;3.63;1.95;;;31.20;81.10;;;;;;5070984;28;20040;-74
2023/06/25 12:26:09;;;;;;;6.95;2.25;;;31.10;80.50;;;;;;5070537;28;20031;-74
2023/06/25 12:28:35;;;;;;;6.72;2.15;;;31.50;80.20;;;;;;5073202;28;20482;-74
2023/06/25 12:31:01;;;;;;;4.28;2.10;;;31.10;80.50;;;;;;5070293;28;20463;-74
2023/06/25 12:33:26;;;;;;;3.35;1.88;;;31.00;81.10;;;;;;5070245;28;20352;-74
2023/06/25 12:35:52;;;;;;;5.35;1.95;;;30.80;81.80;;;;;;5070141;28;20055;-74
2023/06/25 12:38:18;;;;;;;4.20;1.80;;;30.90;80.50;;;;;;5070026;28;20112;-74
2023/06/25 12:40:46;;;;;;;5.93;2.03;;;31.00;81.60;;;;;;5070348;28;20032;-74
2023/06/25 12:43:11;;;;;;;4.70;1.95;;;30.60;80.40;;;;;;5070235;28;20044;-74